sensor_id;sensor_type;location;lat;lon;timestamp;pressure;altitude;pressure_sealevel;temperature;humidity
9764;BME280;4921;43.214;27.936;2023-02-14T00:01:06;102563.97;;;4.45;79.38
9764;BME280;4921;43.214;27.936;2023-02-14T00:03:33;102562.03;;;4.53;78.74
9764;BME280;4921;43.214;27.936;2023-02-14T00:06:05;102560.13;;;4.59;78.61
9764;BME280;4921;43.214;27.936;2023-02-14T00:08:31;102556.59;;;4.63;78.11
9764;BME280;4921;43.214;27.936;2023-02-14T00:11:00;102554.09;;;4.59;77.83
9764;BME280;4921;43.214;27.936;2023-02-14T00:13:27;102560.28;;;4.53;77.54
9764;BME280;4921;43.214;27.936;2023-02-14T00:15:54;102549.09;;;4.50;77.92
9764;BME280;4921;43.214;27.936;2023-02-14T00:18:20;102541.44;;;4.44;77.45
9764;BME280;4921;43.214;27.936;2023-02-14T00:20:47;102538.72;;;4.48;77.19
9764;BME280;4921;43.214;27.936;2023-02-14T00:23:14;102538.72;;;4.47;76.94
9764;BME280;4921;43.214;27.936;2023-02-14T00:25:41;102541.38;;;4.45;76.78
9764;BME280;4921;43.214;27.936;2023-02-14T00:28:10;102532.81;;;4.42;77.33
9764;BME280;4921;43.214;27.936;2023-02-14T00:30:36;102526.50;;;4.50;76.76
9764;BME280;4921;43.214;27.936;2023-02-14T00:33:03;102533.50;;;4.48;76.11
9764;BME280;4921;43.214;27.936;2023-02-14T00:35:31;102522.34;;;4.43;76.76
9764;BME280;4921;43.214;27.936;2023-02-14T00:37:58;102524.84;;;4.46;76.55
9764;BME280;4921;43.214;27.936;2023-02-14T00:40:25;102519.69;;;4.45;76.03
9764;BME280;4921;43.214;27.936;2023-02-14T00:42:53;102515.34;;;4.45;76.14
9764;BME280;4921;43.214;27.936;2023-02-14T00:45:21;102508.66;;;4.35;76.86
9764;BME280;4921;43.214;27.936;2023-02-14T00:47:48;102507.94;;;4.29;76.77
9764;BME280;4921;43.214;27.936;2023-02-14T00:50:15;102493.34;;;4.22;77.32
9764;BME280;4921;43.214;27.936;2023-02-14T00:52:42;102499.66;;;4.10;79.06
9764;BME280;4921;43.214;27.936;2023-02-14T00:55:09;102494.56;;;4.06;79.53
9764;BME280;4921;43.214;27.936;2023-02-14T00:57:36;102483.22;;;4.08;79.58
9764;BME280;4921;43.214;27.936;2023-02-14T01:00:05;102487.56;;;4.09;79.14
9764;BME280;4921;43.214;27.936;2023-02-14T01:02:33;102486.78;;;4.04;79.41
9764;BME280;4921;43.214;27.936;2023-02-14T01:05:00;102481.72;;;3.98;80.76
9764;BME280;4921;43.214;27.936;2023-02-14T01:07:27;102474.84;;;3.96;81.14
9764;BME280;4921;43.214;27.936;2023-02-14T01:09:54;102470.47;;;3.98;80.71
9764;BME280;4921;43.214;27.936;2023-02-14T01:12:21;102463.63;;;3.94;80.88
9764;BME280;4921;43.214;27.936;2023-02-14T01:14:48;102461.06;;;3.92;81.96
9764;BME280;4921;43.214;27.936;2023-02-14T01:17:15;102460.28;;;3.87;82.01
9764;BME280;4921;43.214;27.936;2023-02-14T01:19:43;102451.88;;;3.76;83.73
9764;BME280;4921;43.214;27.936;2023-02-14T01:22:10;102443.16;;;3.78;84.34
9764;BME280;4921;43.214;27.936;2023-02-14T01:24:37;102449.03;;;3.86;83.88
9764;BME280;4921;43.214;27.936;2023-02-14T01:27:04;102448.25;;;3.83;84.45
9764;BME280;4921;43.214;27.936;2023-02-14T01:29:31;102450.75;;;3.86;85.00
9764;BME280;4921;43.214;27.936;2023-02-14T01:31:58;102446.31;;;3.91;84.59
9764;BME280;4921;43.214;27.936;2023-02-14T01:34:25;102448.72;;;4.00;83.55
9764;BME280;4921;43.214;27.936;2023-02-14T01:36:53;102424.63;;;3.92;83.55
9764;BME280;4921;43.214;27.936;2023-02-14T01:39:20;102438.16;;;4.06;83.75
9764;BME280;4921;43.214;27.936;2023-02-14T01:41:47;102440.66;;;4.11;82.75
9764;BME280;4921;43.214;27.936;2023-02-14T01:47:15;102434.63;;;4.09;83.45
9764;BME280;4921;43.214;27.936;2023-02-14T01:49:45;102439.63;;;4.18;82.76
9764;BME280;4921;43.214;27.936;2023-02-14T01:52:19;102432.59;;;4.21;82.47
9764;BME280;4921;43.214;27.936;2023-02-14T01:54:59;102414.66;;;4.09;82.08
9764;BME280;4921;43.214;27.936;2023-02-14T01:57:30;102436.31;;;4.11;82.83
9764;BME280;4921;43.214;27.936;2023-02-14T01:59:59;102434.31;;;4.22;82.82
9764;BME280;4921;43.214;27.936;2023-02-14T02:02:41;102434.38;;;4.19;83.51
9764;BME280;4921;43.214;27.936;2023-02-14T02:05:08;102418.81;;;4.16;82.68
9764;BME280;4921;43.214;27.936;2023-02-14T02:07:37;102417.88;;;4.20;83.04
9764;BME280;4921;43.214;27.936;2023-02-14T02:10:07;102406.38;;;4.29;82.27
9764;BME280;4921;43.214;27.936;2023-02-14T02:12:34;102399.50;;;4.26;82.20
9764;BME280;4921;43.214;27.936;2023-02-14T02:15:04;102400.09;;;4.37;81.75
9764;BME280;4921;43.214;27.936;2023-02-14T02:17:36;102387.06;;;4.36;81.50
9764;BME280;4921;43.214;27.936;2023-02-14T02:29:37;102375.84;;;4.35;80.73
9764;BME280;4921;43.214;27.936;2023-02-14T02:32:40;102364.91;;;4.21;81.03
9764;BME280;4921;43.214;27.936;2023-02-14T02:35:22;102368.19;;;4.28;81.01
9764;BME280;4921;43.214;27.936;2023-02-14T02:38:05;102367.38;;;4.26;80.52
9764;BME280;4921;43.214;27.936;2023-02-14T02:40:43;102364.00;;;4.22;81.29
9764;BME280;4921;43.214;27.936;2023-02-14T02:43:20;102365.94;;;4.14;80.63
9764;BME280;4921;43.214;27.936;2023-02-14T02:45:58;102361.63;;;4.13;81.42
9764;BME280;4921;43.214;27.936;2023-02-14T02:48:47;102352.38;;;4.02;81.20
9764;BME280;4921;43.214;27.936;2023-02-14T02:51:29;102374.69;;;4.12;80.49
9764;BME280;4921;43.214;27.936;2023-02-14T02:54:19;102363.75;;;3.98;81.91
9764;BME280;4921;43.214;27.936;2023-02-14T02:56:52;102372.47;;;3.95;82.18
9764;BME280;4921;43.214;27.936;2023-02-14T02:59:23;102370.91;;;3.90;83.50
9764;BME280;4921;43.214;27.936;2023-02-14T03:01:55;102368.19;;;3.94;83.25
9764;BME280;4921;43.214;27.936;2023-02-14T03:04:25;102356.97;;;3.92;82.41
9764;BME280;4921;43.214;27.936;2023-02-14T03:07:08;102358.66;;;3.93;83.00
9764;BME280;4921;43.214;27.936;2023-02-14T03:09:50;102349.88;;;3.99;82.31
9764;BME280;4921;43.214;27.936;2023-02-14T03:12:37;102345.75;;;3.90;83.59
9764;BME280;4921;43.214;27.936;2023-02-14T03:15:14;102330.91;;;3.94;81.96
9764;BME280;4921;43.214;27.936;2023-02-14T03:17:58;102344.13;;;3.84;83.32
9764;BME280;4921;43.214;27.936;2023-02-14T03:20:37;102338.22;;;3.78;84.00
9764;BME280;4921;43.214;27.936;2023-02-14T03:23:15;102337.34;;;3.77;84.18
9764;BME280;4921;43.214;27.936;2023-02-14T03:25:48;102327.75;;;3.81;83.22
9764;BME280;4921;43.214;27.936;2023-02-14T03:28:21;102324.22;;;3.82;83.72
9764;BME280;4921;43.214;27.936;2023-02-14T03:30:55;102325.09;;;3.82;83.88
9764;BME280;4921;43.214;27.936;2023-02-14T03:33:30;102319.19;;;3.76;83.89
9764;BME280;4921;43.214;27.936;2023-02-14T03:36:01;102318.41;;;3.72;84.49
9764;BME280;4921;43.214;27.936;2023-02-14T03:38:35;102320.00;;;3.78;84.70
9764;BME280;4921;43.214;27.936;2023-02-14T03:41:09;102310.41;;;3.81;83.61
9764;BME280;4921;43.214;27.936;2023-02-14T03:43:42;102300.88;;;3.80;83.88
9764;BME280;4921;43.214;27.936;2023-02-14T03:46:13;102287.81;;;3.82;83.24
9764;BME280;4921;43.214;27.936;2023-02-14T03:48:41;102288.06;;;3.73;84.34
9764;BME280;4921;43.214;27.936;2023-02-14T03:51:11;102288.19;;;3.67;85.29
9764;BME280;4921;43.214;27.936;2023-02-14T03:53:43;102292.56;;;3.65;85.56
9764;BME280;4921;43.214;27.936;2023-02-14T03:56:16;102286.44;;;3.67;84.57
9764;BME280;4921;43.214;27.936;2023-02-14T03:58:46;102292.63;;;3.63;85.12
9764;BME280;4921;43.214;27.936;2023-02-14T04:01:16;102293.47;;;3.64;85.68
9764;BME280;4921;43.214;27.936;2023-02-14T04:03:47;102266.13;;;3.48;85.73
9764;BME280;4921;43.214;27.936;2023-02-14T04:06:16;102275.50;;;3.55;86.15
9764;BME280;4921;43.214;27.936;2023-02-14T04:08:45;102281.56;;;3.54;86.41
9764;BME280;4921;43.214;27.936;2023-02-14T04:11:13;102275.63;;;3.49;87.18
9764;BME280;4921;43.214;27.936;2023-02-14T04:13:40;102293.75;;;3.53;86.63
9764;BME280;4921;43.214;27.936;2023-02-14T04:16:07;102294.22;;;3.32;87.58
9764;BME280;4921;43.214;27.936;2023-02-14T04:18:34;102294.00;;;3.43;87.85
9764;BME280;4921;43.214;27.936;2023-02-14T04:21:18;102300.94;;;3.42;87.91
9764;BME280;4921;43.214;27.936;2023-02-14T04:23:47;102305.22;;;3.45;87.71
9764;BME280;4921;43.214;27.936;2023-02-14T04:26:14;102306.03;;;3.45;87.07
9764;BME280;4921;43.214;27.936;2023-02-14T04:28:41;102306.91;;;3.46;86.54
9764;BME280;4921;43.214;27.936;2023-02-14T04:31:07;102313.94;;;3.41;86.69
9764;BME280;4921;43.214;27.936;2023-02-14T04:33:35;102312.31;;;3.37;86.85
9764;BME280;4921;43.214;27.936;2023-02-14T04:36:04;102317.44;;;3.40;86.67
9764;BME280;4921;43.214;27.936;2023-02-14T04:38:31;102309.50;;;3.46;86.20
9764;BME280;4921;43.214;27.936;2023-02-14T04:41:00;102312.16;;;3.44;86.66
9764;BME280;4921;43.214;27.936;2023-02-14T04:43:26;102314.44;;;3.58;84.86
9764;BME280;4921;43.214;27.936;2023-02-14T04:45:53;102311.94;;;3.52;84.76
9764;BME280;4921;43.214;27.936;2023-02-14T04:48:20;102308.53;;;3.50;85.29
9764;BME280;4921;43.214;27.936;2023-02-14T04:50:50;102311.94;;;3.53;84.77
9764;BME280;4921;43.214;27.936;2023-02-14T04:53:17;102311.78;;;3.59;84.34
9764;BME280;4921;43.214;27.936;2023-02-14T04:55:44;102307.50;;;3.57;84.51
9764;BME280;4921;43.214;27.936;2023-02-14T04:58:13;102312.16;;;3.44;86.45
9764;BME280;4921;43.214;27.936;2023-02-14T05:00:40;102312.88;;;3.51;86.08
9764;BME280;4921;43.214;27.936;2023-02-14T05:03:07;102304.41;;;3.43;85.42
9764;BME280;4921;43.214;27.936;2023-02-14T05:05:33;102311.28;;;3.44;86.27
9764;BME280;4921;43.214;27.936;2023-02-14T05:08:00;102310.47;;;3.42;86.22
9764;BME280;4921;43.214;27.936;2023-02-14T05:10:27;102302.59;;;3.45;86.31
9764;BME280;4921;43.214;27.936;2023-02-14T05:12:54;102306.53;;;3.61;85.13
9764;BME280;4921;43.214;27.936;2023-02-14T05:15:23;102312.56;;;3.64;84.08
9764;BME280;4921;43.214;27.936;2023-02-14T05:17:49;102316.03;;;3.63;83.39
9764;BME280;4921;43.214;27.936;2023-02-14T05:20:16;102321.47;;;3.53;84.17
9764;BME280;4921;43.214;27.936;2023-02-14T05:22:43;102323.13;;;3.57;84.32
9764;BME280;4921;43.214;27.936;2023-02-14T05:25:10;102324.00;;;3.56;84.87
9764;BME280;4921;43.214;27.936;2023-02-14T05:27:37;102319.69;;;3.55;84.77
9764;BME280;4921;43.214;27.936;2023-02-14T05:30:05;102320.31;;;3.66;82.78
9764;BME280;4921;43.214;27.936;2023-02-14T05:32:35;102323.41;;;3.80;81.72
9764;BME280;4921;43.214;27.936;2023-02-14T05:35:02;102326.31;;;3.68;81.80
9764;BME280;4921;43.214;27.936;2023-02-14T05:37:29;102322.72;;;3.73;82.27
9764;BME280;4921;43.214;27.936;2023-02-14T05:39:56;102328.00;;;3.70;82.50
9764;BME280;4921;43.214;27.936;2023-02-14T05:42:23;102326.38;;;3.66;82.58
9764;BME280;4921;43.214;27.936;2023-02-14T05:44:50;102331.47;;;3.69;82.40
9764;BME280;4921;43.214;27.936;2023-02-14T05:47:17;102336.53;;;3.77;81.83
9764;BME280;4921;43.214;27.936;2023-02-14T05:49:45;102331.06;;;3.86;81.57
9764;BME280;4921;43.214;27.936;2023-02-14T05:52:12;102325.03;;;3.84;81.17
9764;BME280;4921;43.214;27.936;2023-02-14T05:54:39;102324.22;;;3.83;82.09
9764;BME280;4921;43.214;27.936;2023-02-14T05:57:06;102324.00;;;3.91;81.75
9764;BME280;4921;43.214;27.936;2023-02-14T05:59:33;102313.44;;;3.97;81.41
9764;BME280;4921;43.214;27.936;2023-02-14T06:02:00;102309.75;;;4.06;80.86
9764;BME280;4921;43.214;27.936;2023-02-14T06:04:27;102315.66;;;4.14;80.96
9764;BME280;4921;43.214;27.936;2023-02-14T06:06:55;102310.22;;;4.21;79.95
9764;BME280;4921;43.214;27.936;2023-02-14T06:09:22;102313.41;;;4.32;78.89
9764;BME280;4921;43.214;27.936;2023-02-14T06:11:49;102316.94;;;4.30;78.74
9764;BME280;4921;43.214;27.936;2023-02-14T06:14:16;102304.78;;;4.30;79.28
9764;BME280;4921;43.214;27.936;2023-02-14T06:16:43;102314.16;;;4.36;78.58
9764;BME280;4921;43.214;27.936;2023-02-14T06:19:10;102302.63;;;4.44;77.53
9764;BME280;4921;43.214;27.936;2023-02-14T06:21:37;102291.41;;;4.44;77.46
9764;BME280;4921;43.214;27.936;2023-02-14T06:24:06;102302.41;;;4.53;76.89
9764;BME280;4921;43.214;27.936;2023-02-14T06:26:33;102300.47;;;4.60;75.64
9764;BME280;4921;43.214;27.936;2023-02-14T06:29:01;102311.81;;;4.59;76.19
9764;BME280;4921;43.214;27.936;2023-02-14T06:31:29;102301.09;;;4.68;75.91
9764;BME280;4921;43.214;27.936;2023-02-14T06:33:56;102306.91;;;4.78;74.59
9764;BME280;4921;43.214;27.936;2023-02-14T06:36:23;102299.59;;;4.90;74.19
9764;BME280;4921;43.214;27.936;2023-02-14T06:38:50;102297.47;;;5.03;73.44
9764;BME280;4921;43.214;27.936;2023-02-14T06:41:19;102296.22;;;5.16;72.50
9764;BME280;4921;43.214;27.936;2023-02-14T06:43:46;102300.28;;;5.24;71.83
9764;BME280;4921;43.214;27.936;2023-02-14T06:46:14;102296.59;;;5.31;70.97
9764;BME280;4921;43.214;27.936;2023-02-14T06:48:41;102286.09;;;5.34;70.97
9764;BME280;4921;43.214;27.936;2023-02-14T06:51:09;102293.81;;;5.37;71.01
9764;BME280;4921;43.214;27.936;2023-02-14T06:53:36;102284.97;;;5.41;70.43
9764;BME280;4921;43.214;27.936;2023-02-14T06:56:04;102285.06;;;5.66;69.79
9764;BME280;4921;43.214;27.936;2023-02-14T06:58:32;102284.56;;;5.81;68.96
9764;BME280;4921;43.214;27.936;2023-02-14T07:00:59;102282.69;;;5.86;67.29
9764;BME280;4921;43.214;27.936;2023-02-14T07:03:26;102304.81;;;6.01;67.55
9764;BME280;4921;43.214;27.936;2023-02-14T07:05:53;102304.44;;;6.11;67.15
9764;BME280;4921;43.214;27.936;2023-02-14T07:08:20;102300.88;;;6.39;65.47
9764;BME280;4921;43.214;27.936;2023-02-14T07:10:47;102297.84;;;6.51;64.97
9764;BME280;4921;43.214;27.936;2023-02-14T07:13:14;102298.25;;;6.63;64.37
9764;BME280;4921;43.214;27.936;2023-02-14T07:15:43;102291.59;;;6.78;63.17
9764;BME280;4921;43.214;27.936;2023-02-14T07:18:10;102297.22;;;6.90;63.41
9764;BME280;4921;43.214;27.936;2023-02-14T07:20:37;102284.84;;;6.96;63.11
9764;BME280;4921;43.214;27.936;2023-02-14T07:23:04;102280.03;;;7.07;62.21
9764;BME280;4921;43.214;27.936;2023-02-14T07:25:31;102282.00;;;7.23;61.55
9764;BME280;4921;43.214;27.936;2023-02-14T07:27:58;102292.72;;;7.17;61.90
9764;BME280;4921;43.214;27.936;2023-02-14T07:30:26;102281.91;;;7.26;61.88
9764;BME280;4921;43.214;27.936;2023-02-14T07:32:55;102277.63;;;7.45;61.30
9764;BME280;4921;43.214;27.936;2023-02-14T07:35:22;102279.31;;;7.68;60.63
9764;BME280;4921;43.214;27.936;2023-02-14T07:37:50;102284.97;;;7.79;60.37
9764;BME280;4921;43.214;27.936;2023-02-14T07:40:17;102289.63;;;7.93;60.62
9764;BME280;4921;43.214;27.936;2023-02-14T07:42:51;102296.13;;;8.04;59.93
9764;BME280;4921;43.214;27.936;2023-02-14T07:45:18;102291.22;;;8.17;60.04
9764;BME280;4921;43.214;27.936;2023-02-14T07:47:46;102284.16;;;8.19;59.92
9764;BME280;4921;43.214;27.936;2023-02-14T07:50:15;102293.22;;;8.32;61.06
9764;BME280;4921;43.214;27.936;2023-02-14T07:52:42;102281.19;;;8.47;60.76
9764;BME280;4921;43.214;27.936;2023-02-14T07:55:10;102277.69;;;8.66;59.31
9764;BME280;4921;43.214;27.936;2023-02-14T07:57:37;102273.88;;;8.73;58.80
9764;BME280;4921;43.214;27.936;2023-02-14T08:00:06;102277.28;;;9.12;57.16
9764;BME280;4921;43.214;27.936;2023-02-14T08:02:33;102276.84;;;9.21;56.65
9764;BME280;4921;43.214;27.936;2023-02-14T08:05:00;102272.22;;;9.27;56.32
9764;BME280;4921;43.214;27.936;2023-02-14T08:07:28;102267.66;;;9.49;56.12
9764;BME280;4921;43.214;27.936;2023-02-14T08:09:55;102266.06;;;9.63;55.33
9764;BME280;4921;43.214;27.936;2023-02-14T08:12:22;102256.25;;;9.84;54.33
9764;BME280;4921;43.214;27.936;2023-02-14T08:15:07;102252.78;;;10.01;53.55
9764;BME280;4921;43.214;27.936;2023-02-14T08:17:52;102251.09;;;10.17;51.99
9764;BME280;4921;43.214;27.936;2023-02-14T08:20:19;102243.97;;;10.19;52.75
9764;BME280;4921;43.214;27.936;2023-02-14T08:22:47;102233.94;;;10.42;50.65
9764;BME280;4921;43.214;27.936;2023-02-14T08:25:14;102244.91;;;10.50;50.24
9764;BME280;4921;43.214;27.936;2023-02-14T08:27:41;102238.31;;;10.74;49.27
9764;BME280;4921;43.214;27.936;2023-02-14T08:30:09;102237.31;;;10.93;48.97
9764;BME280;4921;43.214;27.936;2023-02-14T08:32:36;102233.69;;;10.95;47.84
9764;BME280;4921;43.214;27.936;2023-02-14T08:35:03;102233.66;;;11.11;47.59
9764;BME280;4921;43.214;27.936;2023-02-14T08:37:30;102232.03;;;11.24;47.38
9764;BME280;4921;43.214;27.936;2023-02-14T08:39:58;102237.44;;;11.52;45.43
9764;BME280;4921;43.214;27.936;2023-02-14T08:42:25;102235.66;;;11.37;46.36
9764;BME280;4921;43.214;27.936;2023-02-14T08:44:52;102230.28;;;11.54;45.38
9764;BME280;4921;43.214;27.936;2023-02-14T08:47:19;102230.13;;;11.73;44.59
9764;BME280;4921;43.214;27.936;2023-02-14T08:49:46;102229.22;;;11.88;44.23
9764;BME280;4921;43.214;27.936;2023-02-14T08:52:14;102218.69;;;12.02;44.63
9764;BME280;4921;43.214;27.936;2023-02-14T08:54:41;102223.78;;;12.19;43.66
9764;BME280;4921;43.214;27.936;2023-02-14T08:57:10;102225.69;;;12.31;43.30
9764;BME280;4921;43.214;27.936;2023-02-14T08:59:37;102214.09;;;12.19;43.46
9764;BME280;4921;43.214;27.936;2023-02-14T09:02:04;102209.41;;;12.24;43.82
9764;BME280;4921;43.214;27.936;2023-02-14T09:04:34;102206.47;;;12.29;43.29
9764;BME280;4921;43.214;27.936;2023-02-14T09:07:01;102207.69;;;12.52;43.02
9764;BME280;4921;43.214;27.936;2023-02-14T09:09:29;102203.97;;;12.68;41.87
9764;BME280;4921;43.214;27.936;2023-02-14T09:11:57;102187.59;;;12.63;41.04
9764;BME280;4921;43.214;27.936;2023-02-14T09:14:25;102185.03;;;12.76;41.25
9764;BME280;4921;43.214;27.936;2023-02-14T09:16:52;102194.72;;;12.89;40.30
9764;BME280;4921;43.214;27.936;2023-02-14T09:19:19;102176.13;;;12.91;40.24
9764;BME280;4921;43.214;27.936;2023-02-14T09:21:50;102189.13;;;13.08;39.95
9764;BME280;4921;43.214;27.936;2023-02-14T09:24:17;102188.59;;;13.16;39.50
9764;BME280;4921;43.214;27.936;2023-02-14T09:26:44;102183.19;;;13.31;39.16
9764;BME280;4921;43.214;27.936;2023-02-14T09:29:11;102177.09;;;13.43;38.38
9764;BME280;4921;43.214;27.936;2023-02-14T09:31:41;102179.75;;;13.43;38.35
9764;BME280;4921;43.214;27.936;2023-02-14T09:34:08;102172.88;;;13.53;38.33
9764;BME280;4921;43.214;27.936;2023-02-14T09:36:35;102168.66;;;13.63;37.87
9764;BME280;4921;43.214;27.936;2023-02-14T09:39:19;102169.63;;;13.75;37.46
9764;BME280;4921;43.214;27.936;2023-02-14T09:42:04;102169.75;;;13.86;36.79
9764;BME280;4921;43.214;27.936;2023-02-14T09:44:37;102163.81;;;13.83;37.39
9764;BME280;4921;43.214;27.936;2023-02-14T09:47:13;102159.16;;;13.99;37.22
9764;BME280;4921;43.214;27.936;2023-02-14T09:49:44;102177.88;;;14.08;37.35
9764;BME280;4921;43.214;27.936;2023-02-14T09:52:13;102152.59;;;14.04;37.10
9764;BME280;4921;43.214;27.936;2023-02-14T09:54:44;102164.13;;;14.16;36.74
9764;BME280;4921;43.214;27.936;2023-02-14T09:57:22;102163.84;;;14.33;36.18
9764;BME280;4921;43.214;27.936;2023-02-14T09:59:54;102162.53;;;14.38;36.72
9764;BME280;4921;43.214;27.936;2023-02-14T10:02:36;102142.88;;;14.30;35.98
9764;BME280;4921;43.214;27.936;2023-02-14T10:05:09;102170.56;;;14.49;35.94
9764;BME280;4921;43.214;27.936;2023-02-14T10:07:54;102146.53;;;14.52;35.69
9764;BME280;4921;43.214;27.936;2023-02-14T10:10:25;102161.03;;;14.60;35.66
9764;BME280;4921;43.214;27.936;2023-02-14T10:12:58;102152.53;;;14.67;35.86
9764;BME280;4921;43.214;27.936;2023-02-14T10:15:29;102144.13;;;14.73;35.59
9764;BME280;4921;43.214;27.936;2023-02-14T10:18:02;102138.84;;;14.73;35.26
9764;BME280;4921;43.214;27.936;2023-02-14T10:20:33;102115.13;;;14.72;34.86
9764;BME280;4921;43.214;27.936;2023-02-14T10:23:04;102127.19;;;14.99;33.94
9764;BME280;4921;43.214;27.936;2023-02-14T10:25:38;102129.09;;;14.97;34.26
9764;BME280;4921;43.214;27.936;2023-02-14T10:28:12;102116.53;;;14.88;34.15
9764;BME280;4921;43.214;27.936;2023-02-14T10:30:47;102120.59;;;15.05;34.39
9764;BME280;4921;43.214;27.936;2023-02-14T10:33:19;102116.69;;;14.98;33.90
9764;BME280;4921;43.214;27.936;2023-02-14T10:35:48;102114.28;;;14.95;33.75
9764;BME280;4921;43.214;27.936;2023-02-14T10:38:28;102116.63;;;15.10;33.63
9764;BME280;4921;43.214;27.936;2023-02-14T10:41:18;102107.66;;;15.24;33.11
9764;BME280;4921;43.214;27.936;2023-02-14T10:43:52;102106.44;;;14.93;33.40
9764;BME280;4921;43.214;27.936;2023-02-14T10:46:32;102108.28;;;15.04;32.92
9764;BME280;4921;43.214;27.936;2023-02-14T10:49:12;102107.75;;;15.11;33.01
9764;BME280;4921;43.214;27.936;2023-02-14T10:51:50;102099.19;;;15.19;32.94
9764;BME280;4921;43.214;27.936;2023-02-14T10:54:22;102105.03;;;15.00;34.02
9764;BME280;4921;43.214;27.936;2023-02-14T10:56:54;102105.66;;;15.04;34.15
9764;BME280;4921;43.214;27.936;2023-02-14T10:59:26;102101.94;;;15.06;33.76
9764;BME280;4921;43.214;27.936;2023-02-14T11:01:57;102098.16;;;14.98;33.75
9764;BME280;4921;43.214;27.936;2023-02-14T11:04:26;102102.13;;;15.03;32.96
9764;BME280;4921;43.214;27.936;2023-02-14T11:06:55;102102.59;;;14.97;32.55
9764;BME280;4921;43.214;27.936;2023-02-14T11:09:23;102088.84;;;14.92;32.23
9764;BME280;4921;43.214;27.936;2023-02-14T11:11:52;102093.94;;;14.72;31.84
9764;BME280;4921;43.214;27.936;2023-02-14T11:14:24;102094.78;;;14.48;32.51
9764;BME280;4921;43.214;27.936;2023-02-14T11:16:53;102086.38;;;14.55;42.31
9764;BME280;4921;43.214;27.936;2023-02-14T11:19:26;102087.19;;;14.31;34.19
9764;BME280;4921;43.214;27.936;2023-02-14T11:21:55;102053.38;;;13.99;34.07
9764;BME280;4921;43.214;27.936;2023-02-14T11:29:29;102070.41;;;13.95;34.76
9764;BME280;4921;43.214;27.936;2023-02-14T11:32:06;102060.38;;;13.74;35.01
9764;BME280;4921;43.214;27.936;2023-02-14T11:34:37;102059.44;;;13.75;35.02
9764;BME280;4921;43.214;27.936;2023-02-14T11:37:17;102066.41;;;13.76;35.01
9764;BME280;4921;43.214;27.936;2023-02-14T11:39:51;102064.00;;;13.73;35.02
9764;BME280;4921;43.214;27.936;2023-02-14T11:42:40;102064.19;;;13.70;34.60
9764;BME280;4921;43.214;27.936;2023-02-14T11:50:22;102063.47;;;13.56;35.72
9764;BME280;4921;43.214;27.936;2023-02-14T11:52:51;102064.41;;;13.55;35.84
9764;BME280;4921;43.214;27.936;2023-02-14T11:55:25;102053.41;;;13.48;36.13
9764;BME280;4921;43.214;27.936;2023-02-14T11:57:53;102056.47;;;13.42;36.19
9764;BME280;4921;43.214;27.936;2023-02-14T12:00:22;102062.91;;;13.38;35.78
9764;BME280;4921;43.214;27.936;2023-02-14T12:02:51;102053.81;;;13.30;35.43
9764;BME280;4921;43.214;27.936;2023-02-14T12:05:25;102050.31;;;13.17;35.02
9764;BME280;4921;43.214;27.936;2023-02-14T12:07:54;102044.97;;;13.04;36.05
9764;BME280;4921;43.214;27.936;2023-02-14T12:10:24;102045.03;;;12.90;36.53
9764;BME280;4921;43.214;27.936;2023-02-14T12:12:57;102045.69;;;12.93;36.26
9764;BME280;4921;43.214;27.936;2023-02-14T12:15:30;102044.00;;;12.92;36.53
9764;BME280;4921;43.214;27.936;2023-02-14T12:21:16;102036.69;;;12.96;37.13
9764;BME280;4921;43.214;27.936;2023-02-14T12:23:52;102038.94;;;12.89;37.22
9764;BME280;4921;43.214;27.936;2023-02-14T12:26:27;102037.78;;;12.93;36.95
9764;BME280;4921;43.214;27.936;2023-02-14T12:29:02;102038.41;;;12.97;36.75
9764;BME280;4921;43.214;27.936;2023-02-14T12:31:33;102025.75;;;13.02;37.03
9764;BME280;4921;43.214;27.936;2023-02-14T12:34:01;102030.50;;;12.97;37.15
9764;BME280;4921;43.214;27.936;2023-02-14T12:41:40;102018.28;;;13.09;36.92
9764;BME280;4921;43.214;27.936;2023-02-14T12:44:19;102020.78;;;12.97;37.64
9764;BME280;4921;43.214;27.936;2023-02-14T12:46:58;102012.19;;;12.94;37.10
9764;BME280;4921;43.214;27.936;2023-02-14T12:52:32;102012.53;;;12.89;36.28
9764;BME280;4921;43.214;27.936;2023-02-14T12:55:22;102012.16;;;12.81;36.61
9764;BME280;4921;43.214;27.936;2023-02-14T12:57:56;102010.34;;;12.69;37.37
9764;BME280;4921;43.214;27.936;2023-02-14T13:00:33;102007.56;;;12.58;37.77
9764;BME280;4921;43.214;27.936;2023-02-14T13:06:13;102015.50;;;12.58;38.80
9764;BME280;4921;43.214;27.936;2023-02-14T13:08:58;102019.28;;;12.54;38.43
9764;BME280;4921;43.214;27.936;2023-02-14T13:11:35;102013.81;;;12.31;38.56
9764;BME280;4921;43.214;27.936;2023-02-14T13:14:15;102021.81;;;12.29;38.39
9764;BME280;4921;43.214;27.936;2023-02-14T13:16:53;102023.63;;;12.29;38.50
9764;BME280;4921;43.214;27.936;2023-02-14T13:19:30;102017.31;;;12.17;38.42
9764;BME280;4921;43.214;27.936;2023-02-14T13:22:03;102023.38;;;12.05;38.65
9764;BME280;4921;43.214;27.936;2023-02-14T13:24:34;102013.41;;;11.96;38.58
9764;BME280;4921;43.214;27.936;2023-02-14T13:27:06;102018.63;;;11.83;39.34
9764;BME280;4921;43.214;27.936;2023-02-14T13:29:41;102017.94;;;11.80;39.31
9764;BME280;4921;43.214;27.936;2023-02-14T13:32:12;102015.13;;;11.83;39.63
9764;BME280;4921;43.214;27.936;2023-02-14T13:34:44;102023.53;;;11.75;39.78
9764;BME280;4921;43.214;27.936;2023-02-14T13:37:15;102021.16;;;11.71;39.63
9764;BME280;4921;43.214;27.936;2023-02-14T13:39:46;102023.81;;;11.71;39.75
9764;BME280;4921;43.214;27.936;2023-02-14T13:48:22;102008.06;;;11.83;40.08
9764;BME280;4921;43.214;27.936;2023-02-14T13:50:52;102013.97;;;11.87;40.34
9764;BME280;4921;43.214;27.936;2023-02-14T13:53:34;102011.25;;;11.88;40.16
9764;BME280;4921;43.214;27.936;2023-02-14T13:56:03;102004.41;;;11.86;39.30
9764;BME280;4921;43.214;27.936;2023-02-14T13:58:31;102008.13;;;11.96;38.95
9764;BME280;4921;43.214;27.936;2023-02-14T14:04:34;102005.31;;;11.99;38.89
9764;BME280;4921;43.214;27.936;2023-02-14T14:07:21;102009.81;;;11.97;38.95
9764;BME280;4921;43.214;27.936;2023-02-14T14:10:01;101999.28;;;11.97;39.17
9764;BME280;4921;43.214;27.936;2023-02-14T14:12:40;101998.44;;;11.96;39.03